createdAt,value
2022-08-26T00:00:58.291Z,21.58
2022-08-26T00:02:09.727Z,21.59
2022-08-26T00:03:13.844Z,21.57
2022-08-26T00:04:17.136Z,21.56
2022-08-26T00:05:19.368Z,21.56
2022-08-26T00:06:21.611Z,21.56
2022-08-26T00:07:24.775Z,21.55
2022-08-26T00:08:27.022Z,21.53
2022-08-26T00:09:29.350Z,21.53
2022-08-26T00:10:31.894Z,21.51
2022-08-26T00:11:34.209Z,21.51
2022-08-26T00:12:37.717Z,21.50
2022-08-26T00:13:41.285Z,21.49
2022-08-26T00:14:50.196Z,21.49
2022-08-26T00:15:52.788Z,21.48
2022-08-26T00:16:55.394Z,21.47
2022-08-26T00:17:57.750Z,21.45
2022-08-26T00:19:00.022Z,21.45
2022-08-26T00:20:03.800Z,21.44
2022-08-26T00:21:07.912Z,21.42
2022-08-26T00:22:10.473Z,21.41
2022-08-26T00:23:13.824Z,21.42
2022-08-26T00:24:16.941Z,21.40
2022-08-26T00:25:19.624Z,21.39
2022-08-26T00:26:24.892Z,21.39
2022-08-26T00:27:34.079Z,21.38
2022-08-26T00:28:36.951Z,21.37
2022-08-26T00:29:39.169Z,21.36
2022-08-26T00:30:41.408Z,21.35
2022-08-26T00:31:47.433Z,21.35
2022-08-26T00:32:51.233Z,21.34
2022-08-26T00:33:54.252Z,21.33
2022-08-26T00:34:58.168Z,21.32
2022-08-26T00:36:01.458Z,21.31
2022-08-26T00:37:09.427Z,21.29
2022-08-26T00:38:15.778Z,21.30
2022-08-26T00:39:18.047Z,21.28
2022-08-26T00:40:26.113Z,21.27
2022-08-26T00:41:28.875Z,21.26
2022-08-26T00:42:33.487Z,21.25
2022-08-26T00:43:47.136Z,21.24
2022-08-26T00:44:50.747Z,21.24
2022-08-26T00:46:07.360Z,21.22
2022-08-26T00:47:31.148Z,21.22
2022-08-26T00:48:35.943Z,21.22
2022-08-26T00:49:44.452Z,21.21
2022-08-26T00:50:55.905Z,21.20
2022-08-26T00:52:01.116Z,21.18
2022-08-26T00:53:23.874Z,21.16
2022-08-26T00:54:33.292Z,21.16
2022-08-26T00:55:41.428Z,21.14
2022-08-26T00:56:54.641Z,21.14
2022-08-26T00:57:56.968Z,21.13
2022-08-26T00:59:02.905Z,21.11
2022-08-26T01:00:15.211Z,21.10
2022-08-26T01:01:18.624Z,21.08
2022-08-26T01:02:26.026Z,21.07
2022-08-26T01:03:33.692Z,21.05
2022-08-26T01:04:38.595Z,21.04
2022-08-26T01:05:45.170Z,21.03
2022-08-26T01:06:50.605Z,21.02
2022-08-26T01:07:52.807Z,21.00
2022-08-26T01:08:55.249Z,20.99
2022-08-26T01:09:59.975Z,20.98
2022-08-26T01:11:03.082Z,20.97
2022-08-26T01:12:09.202Z,20.96
2022-08-26T01:13:13.648Z,20.94
2022-08-26T01:14:21.109Z,20.93
2022-08-26T01:15:27.726Z,20.92
2022-08-26T01:16:36.609Z,20.92
2022-08-26T01:17:41.225Z,20.91
2022-08-26T01:18:47.020Z,20.90
2022-08-26T01:19:53.461Z,20.90
2022-08-26T01:21:36.095Z,20.87
2022-08-26T01:22:53.341Z,20.86
2022-08-26T01:23:58.176Z,20.86
2022-08-26T01:25:03.641Z,20.84
2022-08-26T01:26:19.621Z,20.84
2022-08-26T01:27:22.697Z,20.81
2022-08-26T01:28:29.973Z,20.81
2022-08-26T01:29:43.998Z,20.80
2022-08-26T01:30:47.370Z,20.80
2022-08-26T01:31:55.608Z,20.78
2022-08-26T01:33:01.627Z,20.78
2022-08-26T01:34:03.796Z,20.77
2022-08-26T01:35:07.599Z,20.75
2022-08-26T01:36:11.273Z,20.75
2022-08-26T01:37:18.881Z,20.73
2022-08-26T01:38:21.408Z,20.74
2022-08-26T01:39:26.014Z,20.73
2022-08-26T01:40:33.892Z,20.73
2022-08-26T01:41:38.100Z,20.72
2022-08-26T01:42:41.540Z,20.72
2022-08-26T01:43:46.818Z,20.72
2022-08-26T01:44:56.596Z,20.71
2022-08-26T01:46:03.030Z,20.70
2022-08-26T01:47:09.539Z,20.71
2022-08-26T01:48:15.895Z,20.71
2022-08-26T01:49:21.091Z,20.70
2022-08-26T01:50:30.255Z,20.71
2022-08-26T01:51:38.715Z,20.70
2022-08-26T01:52:45.157Z,20.70
2022-08-26T01:53:52.500Z,20.69
2022-08-26T01:54:57.507Z,20.69
2022-08-26T01:56:02.381Z,20.68
2022-08-26T01:57:07.413Z,20.68
2022-08-26T01:58:17.988Z,20.67
2022-08-26T01:59:24.111Z,20.66
2022-08-26T02:00:26.786Z,20.66
2022-08-26T02:01:29.677Z,20.66
2022-08-26T02:02:32.663Z,20.65
2022-08-26T02:03:42.318Z,20.67
2022-08-26T02:04:53.516Z,20.65
2022-08-26T02:05:58.876Z,20.65
2022-08-26T02:07:06.670Z,20.64
2022-08-26T02:08:11.277Z,20.64
2022-08-26T02:09:14.725Z,20.64
2022-08-26T02:10:17.374Z,20.63
2022-08-26T02:11:23.720Z,20.63
2022-08-26T02:12:27.316Z,20.63
2022-08-26T02:13:33.127Z,20.62
2022-08-26T02:14:43.817Z,20.61
2022-08-26T02:15:47.556Z,20.61
2022-08-26T02:16:52.452Z,20.61
2022-08-26T02:17:56.432Z,20.61
2022-08-26T02:19:03.185Z,20.61
2022-08-26T02:20:07.224Z,20.60
2022-08-26T02:21:16.568Z,20.59
2022-08-26T02:22:21.921Z,20.59
2022-08-26T02:23:24.802Z,20.58
2022-08-26T02:24:30.443Z,20.58
2022-08-26T02:25:55.916Z,20.56
2022-08-26T02:26:58.491Z,20.57
2022-08-26T02:28:00.870Z,20.55
2022-08-26T02:29:10.077Z,20.55
2022-08-26T02:30:12.577Z,20.54
2022-08-26T02:31:15.252Z,20.54
2022-08-26T02:32:20.398Z,20.54
2022-08-26T02:33:28.775Z,20.53
2022-08-26T02:34:33.209Z,20.52
2022-08-26T02:35:37.210Z,20.51
2022-08-26T02:36:40.301Z,20.50
2022-08-26T02:37:43.312Z,20.50
2022-08-26T02:38:46.239Z,20.49
2022-08-26T02:39:48.506Z,20.48
2022-08-26T02:40:50.718Z,20.47
2022-08-26T02:41:53.261Z,20.47
2022-08-26T02:42:55.879Z,20.46
2022-08-26T02:43:59.214Z,20.45
2022-08-26T02:45:01.455Z,20.44
2022-08-26T02:46:03.957Z,20.45
2022-08-26T02:47:07.977Z,20.44
2022-08-26T02:48:16.961Z,20.42
2022-08-26T02:49:24.947Z,20.42
2022-08-26T02:50:27.682Z,20.41
2022-08-26T02:51:30.131Z,20.41
2022-08-26T02:52:32.427Z,20.39
2022-08-26T02:53:35.426Z,20.39
2022-08-26T02:54:38.598Z,20.38
2022-08-26T02:55:41.924Z,20.37
2022-08-26T02:56:46.044Z,20.37
2022-08-26T02:57:48.317Z,20.36
2022-08-26T02:58:51.000Z,20.36
2022-08-26T02:59:53.223Z,20.34
2022-08-26T03:00:55.651Z,20.34
2022-08-26T03:01:58.211Z,20.35
2022-08-26T03:03:00.416Z,20.33
2022-08-26T03:04:04.188Z,20.31
2022-08-26T03:05:07.641Z,20.31
2022-08-26T03:06:10.974Z,20.31
2022-08-26T03:07:13.382Z,20.30
2022-08-26T03:08:15.693Z,20.29
2022-08-26T03:09:26.903Z,20.28
2022-08-26T03:10:32.288Z,20.28
2022-08-26T03:11:35.816Z,20.27
2022-08-26T03:12:41.252Z,20.26
2022-08-26T03:13:43.624Z,20.26
2022-08-26T03:14:48.803Z,20.25
2022-08-26T03:15:51.062Z,20.24
2022-08-26T03:16:54.549Z,20.24
2022-08-26T03:17:57.159Z,20.23
2022-08-26T03:19:00.429Z,20.22
2022-08-26T03:20:03.784Z,20.21
2022-08-26T03:21:12.691Z,20.21
2022-08-26T03:22:15.159Z,20.19
2022-08-26T03:23:20.779Z,20.18
2022-08-26T03:24:23.005Z,20.17
2022-08-26T03:25:27.428Z,20.17
2022-08-26T03:26:29.907Z,20.16
2022-08-26T03:27:32.854Z,20.16
2022-08-26T03:28:35.360Z,20.14
2022-08-26T03:29:58.057Z,20.14
2022-08-26T03:31:00.613Z,20.12
2022-08-26T03:32:04.190Z,20.12
2022-08-26T03:33:07.448Z,20.13
2022-08-26T03:34:09.797Z,20.11
2022-08-26T03:35:13.695Z,20.09
2022-08-26T03:36:16.166Z,20.09
2022-08-26T03:37:19.023Z,20.10
2022-08-26T03:38:25.205Z,20.09
2022-08-26T03:39:31.571Z,20.08
2022-08-26T03:40:36.713Z,20.08
2022-08-26T03:41:40.607Z,20.08
2022-08-26T03:42:45.444Z,20.07
2022-08-26T03:43:48.500Z,20.06
2022-08-26T03:44:51.621Z,20.06
2022-08-26T03:45:53.835Z,20.06
2022-08-26T03:46:57.053Z,20.05
2022-08-26T03:47:59.905Z,20.04
2022-08-26T03:49:05.327Z,20.02
2022-08-26T03:50:10.857Z,20.02
2022-08-26T03:51:19.150Z,20.02
2022-08-26T03:52:21.355Z,20.00
2022-08-26T03:53:23.981Z,19.99
2022-08-26T03:54:27.046Z,19.99
2022-08-26T03:55:32.187Z,19.98
2022-08-26T03:56:34.748Z,19.99
2022-08-26T03:57:37.361Z,19.98
2022-08-26T03:58:39.672Z,19.98
2022-08-26T03:59:45.460Z,19.97
2022-08-26T04:00:47.877Z,19.97
2022-08-26T04:01:53.769Z,19.95
2022-08-26T04:02:56.568Z,19.94
2022-08-26T04:04:00.283Z,19.93
2022-08-26T04:05:03.096Z,19.93
2022-08-26T04:06:06.031Z,19.92
2022-08-26T04:07:08.657Z,19.92
2022-08-26T04:08:10.998Z,19.92
2022-08-26T04:09:18.104Z,19.92
2022-08-26T04:10:28.962Z,19.91
2022-08-26T04:11:38.319Z,19.91
2022-08-26T04:12:41.673Z,19.91
2022-08-26T04:13:43.999Z,19.90
2022-08-26T04:14:46.731Z,19.89
2022-08-26T04:15:49.069Z,19.89
2022-08-26T04:16:53.135Z,19.90
2022-08-26T04:17:57.693Z,19.89
2022-08-26T04:19:00.285Z,19.87
2022-08-26T04:20:05.981Z,19.88
2022-08-26T04:21:09.148Z,19.87
2022-08-26T04:22:12.957Z,19.88
2022-08-26T04:23:16.853Z,19.87
2022-08-26T04:24:22.762Z,19.84
2022-08-26T04:25:25.926Z,19.86
2022-08-26T04:26:28.441Z,19.84
2022-08-26T04:27:30.657Z,19.84
2022-08-26T04:28:32.897Z,19.85
2022-08-26T04:29:35.131Z,19.84
2022-08-26T04:30:38.247Z,19.84
2022-08-26T04:31:41.371Z,19.85
2022-08-26T04:32:44.269Z,19.83
2022-08-26T04:33:49.574Z,19.84
2022-08-26T04:34:52.034Z,19.83
2022-08-26T04:36:02.548Z,19.83
2022-08-26T04:37:06.113Z,19.83
2022-08-26T04:38:09.392Z,19.82
2022-08-26T04:39:15.016Z,19.82
2022-08-26T04:40:17.355Z,19.82
2022-08-26T04:41:20.696Z,19.82
2022-08-26T04:42:25.998Z,19.81
2022-08-26T04:43:30.560Z,19.81
2022-08-26T04:44:35.959Z,19.81
2022-08-26T04:45:40.416Z,19.81
2022-08-26T04:46:43.949Z,19.80
2022-08-26T04:47:46.907Z,19.80
2022-08-26T04:48:51.790Z,19.79
2022-08-26T04:49:57.729Z,19.80
2022-08-26T04:51:00.822Z,19.80
2022-08-26T04:52:05.159Z,19.80
2022-08-26T04:53:07.591Z,19.80
2022-08-26T04:54:16.751Z,19.80
2022-08-26T04:55:20.766Z,19.79
2022-08-26T04:56:30.709Z,19.79
2022-08-26T04:57:36.435Z,19.80
2022-08-26T04:58:38.934Z,19.80
2022-08-26T04:59:41.149Z,19.80
2022-08-26T05:00:45.131Z,19.80
2022-08-26T05:01:50.397Z,19.80
2022-08-26T05:02:53.278Z,19.81
2022-08-26T05:03:55.507Z,19.81
2022-08-26T05:04:58.497Z,19.80
2022-08-26T05:06:04.594Z,19.82
2022-08-26T05:07:07.955Z,19.83
2022-08-26T05:08:14.386Z,19.83
2022-08-26T05:09:21.089Z,19.83
2022-08-26T05:10:24.213Z,19.83
2022-08-26T05:11:26.489Z,19.84
2022-08-26T05:12:30.075Z,19.84
2022-08-26T05:13:33.815Z,19.86
2022-08-26T05:14:36.511Z,19.86
2022-08-26T05:15:39.383Z,19.88
2022-08-26T05:16:43.062Z,19.88
2022-08-26T05:17:45.264Z,19.89
2022-08-26T05:18:49.805Z,19.90
2022-08-26T05:19:51.983Z,19.89
2022-08-26T05:20:55.057Z,19.90
2022-08-26T05:21:57.259Z,19.92
2022-08-26T05:23:02.512Z,19.92
2022-08-26T05:24:05.464Z,19.93
2022-08-26T05:25:08.129Z,19.93
2022-08-26T05:26:10.347Z,19.94
2022-08-26T05:27:14.171Z,19.95
2022-08-26T05:28:18.392Z,19.96
2022-08-26T05:29:22.315Z,19.96
2022-08-26T05:30:25.039Z,19.96
2022-08-26T05:31:31.711Z,19.98
2022-08-26T05:32:34.039Z,19.99
2022-08-26T05:33:36.216Z,19.98
2022-08-26T05:34:43.606Z,19.98
2022-08-26T05:35:48.015Z,19.99
2022-08-26T05:36:50.523Z,20.00
2022-08-26T05:37:52.766Z,20.00
2022-08-26T05:38:56.957Z,20.01
2022-08-26T05:39:59.224Z,20.02
2022-08-26T05:41:02.194Z,20.03
2022-08-26T05:42:05.893Z,20.03
2022-08-26T05:43:12.044Z,20.03
2022-08-26T05:44:18.860Z,20.04
2022-08-26T05:45:24.273Z,20.06
2022-08-26T05:46:27.368Z,20.06
2022-08-26T05:47:29.856Z,20.09
2022-08-26T05:48:32.042Z,20.08
2022-08-26T05:49:34.774Z,20.11
2022-08-26T05:50:49.594Z,20.11
2022-08-26T05:51:52.156Z,20.13
2022-08-26T05:52:54.331Z,20.14
2022-08-26T05:53:58.394Z,20.14
2022-08-26T05:55:01.271Z,20.18
2022-08-26T05:56:05.271Z,20.19
2022-08-26T05:57:07.495Z,20.22
2022-08-26T05:58:10.461Z,20.24
2022-08-26T05:59:14.782Z,20.28
2022-08-26T06:00:16.988Z,20.29
2022-08-26T06:01:21.948Z,20.32
2022-08-26T06:02:26.457Z,20.35
2022-08-26T06:03:29.635Z,20.37
2022-08-26T06:04:31.985Z,20.41
2022-08-26T06:05:41.958Z,20.42
2022-08-26T06:06:46.337Z,20.45
2022-08-26T06:08:07.304Z,20.48
2022-08-26T06:09:10.982Z,20.50
2022-08-26T06:10:31.510Z,20.54
2022-08-26T06:11:34.625Z,20.56
2022-08-26T06:12:37.580Z,20.60
2022-08-26T06:13:40.704Z,20.64
2022-08-26T06:14:44.231Z,20.68
2022-08-26T06:15:48.887Z,20.73
2022-08-26T06:16:54.185Z,20.79
2022-08-26T06:17:56.438Z,20.84
2022-08-26T06:18:59.687Z,20.90
2022-08-26T06:20:02.064Z,20.97
2022-08-26T06:21:17.141Z,21.05
2022-08-26T06:22:38.408Z,21.14
2022-08-26T06:23:59.452Z,21.25
2022-08-26T06:25:21.613Z,21.37
2022-08-26T06:26:25.685Z,21.48
2022-08-26T06:27:32.141Z,21.58
2022-08-26T06:28:35.146Z,21.67
2022-08-26T06:29:39.135Z,21.76
2022-08-26T06:30:41.711Z,21.85
2022-08-26T06:31:44.573Z,21.95
2022-08-26T06:32:46.766Z,22.03
2022-08-26T06:33:50.053Z,22.13
2022-08-26T06:34:52.543Z,22.22
2022-08-26T06:35:55.602Z,22.31
2022-08-26T06:37:02.443Z,22.41
2022-08-26T06:38:08.938Z,22.50
2022-08-26T06:39:17.257Z,22.58
2022-08-26T06:40:23.610Z,22.65
2022-08-26T06:41:26.208Z,22.71
2022-08-26T06:42:31.246Z,22.79
2022-08-26T06:43:36.241Z,22.86
2022-08-26T06:44:41.183Z,22.95
2022-08-26T06:45:45.943Z,23.03
2022-08-26T06:46:50.725Z,23.13
2022-08-26T06:47:53.592Z,23.20
2022-08-26T06:49:00.438Z,23.31
2022-08-26T06:50:02.855Z,23.41
2022-08-26T06:51:18.490Z,23.53
2022-08-26T06:52:24.506Z,23.63
2022-08-26T06:53:27.570Z,23.74
2022-08-26T06:54:31.721Z,23.84
2022-08-26T06:55:43.264Z,23.97
2022-08-26T06:56:49.459Z,24.07
2022-08-26T06:57:51.705Z,24.17
2022-08-26T06:58:54.206Z,24.25
2022-08-26T06:59:58.091Z,24.35
2022-08-26T07:01:03.741Z,24.44
2022-08-26T07:02:13.921Z,24.54
2022-08-26T07:03:16.247Z,24.63
2022-08-26T07:04:22.038Z,24.72
2022-08-26T07:05:26.396Z,24.82
2022-08-26T07:06:28.727Z,24.92
2022-08-26T07:07:30.951Z,25.02
2022-08-26T07:08:33.118Z,25.12
2022-08-26T07:09:37.546Z,25.24
2022-08-26T07:10:39.882Z,25.34
2022-08-26T07:11:42.301Z,25.44
2022-08-26T07:12:47.124Z,25.56
2022-08-26T07:13:50.588Z,25.68
2022-08-26T07:14:54.209Z,25.78
2022-08-26T07:15:58.268Z,25.90
2022-08-26T07:17:12.202Z,26.02
2022-08-26T07:18:17.320Z,26.13
2022-08-26T07:19:29.908Z,26.26
2022-08-26T07:20:37.099Z,26.39
2022-08-26T07:21:43.073Z,26.51
2022-08-26T07:22:45.598Z,26.62
2022-08-26T07:23:49.110Z,26.73
2022-08-26T07:24:51.431Z,26.84
2022-08-26T07:25:53.646Z,26.95
2022-08-26T07:27:08.759Z,27.06
2022-08-26T07:28:11.123Z,27.14
2022-08-26T07:29:14.940Z,27.24
2022-08-26T07:30:17.229Z,27.31
2022-08-26T07:31:21.815Z,27.39
2022-08-26T07:32:24.068Z,27.47
2022-08-26T07:33:26.292Z,27.53
2022-08-26T07:34:29.417Z,27.58
2022-08-26T07:35:31.753Z,27.64
2022-08-26T07:36:34.698Z,27.69
2022-08-26T07:37:46.069Z,27.75
2022-08-26T07:38:49.236Z,27.78
2022-08-26T07:39:52.504Z,27.84
2022-08-26T07:40:54.926Z,27.88
2022-08-26T07:41:57.892Z,27.92
2022-08-26T07:43:00.946Z,27.97
2022-08-26T07:44:04.285Z,28.04
2022-08-26T07:45:09.637Z,28.08
2022-08-26T07:46:18.501Z,28.14
2022-08-26T07:47:25.397Z,28.23
2022-08-26T07:48:28.588Z,28.26
2022-08-26T07:49:32.817Z,28.35
2022-08-26T07:50:50.011Z,28.41
2022-08-26T07:51:54.577Z,28.49
2022-08-26T07:52:56.800Z,28.56
2022-08-26T07:53:59.161Z,28.63
2022-08-26T07:55:04.571Z,28.70
2022-08-26T07:56:06.894Z,28.77
2022-08-26T07:57:11.230Z,28.85
2022-08-26T07:58:14.221Z,28.90
2022-08-26T07:59:17.776Z,29.00
2022-08-26T08:00:22.921Z,29.06
2022-08-26T08:01:27.159Z,29.12
2022-08-26T08:02:31.144Z,29.19
2022-08-26T08:03:33.929Z,29.26
2022-08-26T08:04:36.423Z,29.32
2022-08-26T08:05:41.271Z,29.40
2022-08-26T08:06:47.550Z,29.49
2022-08-26T08:07:49.788Z,29.55
2022-08-26T08:08:56.227Z,29.63
2022-08-26T08:09:58.467Z,29.69
2022-08-26T08:11:01.539Z,29.75
2022-08-26T08:12:07.063Z,29.83
2022-08-26T08:13:10.001Z,29.90
2022-08-26T08:14:13.219Z,29.98
2022-08-26T08:15:16.961Z,30.05
2022-08-26T08:16:19.231Z,30.11
2022-08-26T08:17:21.540Z,30.18
2022-08-26T08:18:24.085Z,30.25
2022-08-26T08:19:36.661Z,30.32
2022-08-26T08:20:44.818Z,30.40
2022-08-26T08:21:57.067Z,30.48
2022-08-26T08:23:00.656Z,30.55
2022-08-26T08:24:03.146Z,30.62
2022-08-26T08:25:11.782Z,30.69
2022-08-26T08:26:14.229Z,30.76
2022-08-26T08:27:18.119Z,30.82
2022-08-26T08:28:23.730Z,30.90
2022-08-26T08:29:26.753Z,30.97
2022-08-26T08:30:29.017Z,31.02
2022-08-26T08:32:55.490Z,31.18
2022-08-26T08:33:57.995Z,31.24
2022-08-26T08:35:00.289Z,31.32
2022-08-26T08:36:05.994Z,31.37
2022-08-26T08:37:11.464Z,31.43
2022-08-26T08:38:13.686Z,31.49
2022-08-26T08:39:17.047Z,31.55
2022-08-26T08:40:19.494Z,31.62
2022-08-26T08:41:31.462Z,31.68
2022-08-26T08:42:57.291Z,31.76
2022-08-26T08:44:01.754Z,31.84
2022-08-26T08:45:34.500Z,31.90
2022-08-26T08:46:41.369Z,31.98
2022-08-26T08:47:51.701Z,32.04
2022-08-26T08:49:00.004Z,32.10
2022-08-26T08:50:17.914Z,32.16
2022-08-26T08:51:48.151Z,32.21
2022-08-26T08:53:19.109Z,32.27
2022-08-26T08:54:26.494Z,32.33
2022-08-26T08:55:36.842Z,32.37
2022-08-26T08:56:57.619Z,32.40
2022-08-26T08:58:10.291Z,32.47
2022-08-26T08:59:27.591Z,32.52
2022-08-26T09:00:40.068Z,32.56
2022-08-26T09:01:52.545Z,32.62
2022-08-26T09:02:58.808Z,32.66
2022-08-26T09:04:19.626Z,32.73
2022-08-26T09:05:40.225Z,32.78
2022-08-26T09:06:43.318Z,32.81
2022-08-26T09:07:54.363Z,32.85
2022-08-26T09:08:57.834Z,32.87
2022-08-26T09:10:35.940Z,32.90
2022-08-26T09:11:38.905Z,32.89
2022-08-26T09:12:45.761Z,32.90
2022-08-26T09:13:52.495Z,32.90
2022-08-26T09:15:02.510Z,32.89
2022-08-26T09:16:19.055Z,32.89
2022-08-26T09:17:44.186Z,32.87
2022-08-26T09:19:14.353Z,32.86
2022-08-26T09:20:42.471Z,32.86
2022-08-26T09:21:56.779Z,32.85
2022-08-26T09:22:59.120Z,32.86
2022-08-26T09:24:01.319Z,32.84
2022-08-26T09:25:08.243Z,32.85
2022-08-26T09:26:42.508Z,32.83
2022-08-26T09:27:50.287Z,32.81
2022-08-26T09:28:58.871Z,32.81
2022-08-26T09:30:01.099Z,32.79
2022-08-26T09:31:17.463Z,32.79
2022-08-26T09:32:25.049Z,32.78
2022-08-26T09:33:35.142Z,32.78
2022-08-26T09:34:52.140Z,32.77
2022-08-26T09:36:13.005Z,32.78
2022-08-26T09:37:53.134Z,32.78
2022-08-26T09:38:56.165Z,32.77
2022-08-26T09:40:18.426Z,32.79
2022-08-26T09:41:24.898Z,32.78
2022-08-26T09:42:27.111Z,32.76
2022-08-26T09:43:30.959Z,32.75
2022-08-26T09:44:34.657Z,32.72
2022-08-26T09:45:39.591Z,32.68
2022-08-26T09:47:02.626Z,32.64
2022-08-26T09:48:07.603Z,32.58
2022-08-26T09:49:24.727Z,32.55
2022-08-26T09:50:53.875Z,32.48
2022-08-26T09:52:05.318Z,32.41
2022-08-26T09:53:28.775Z,32.34
2022-08-26T09:54:35.281Z,32.27
2022-08-26T09:55:39.788Z,32.19
2022-08-26T09:56:42.758Z,32.12
2022-08-26T09:57:51.505Z,32.02
2022-08-26T09:58:55.492Z,31.94
2022-08-26T09:59:57.799Z,31.86
2022-08-26T10:01:02.601Z,31.78
2022-08-26T10:02:29.629Z,31.66
2022-08-26T10:03:36.129Z,31.56
2022-08-26T10:04:38.421Z,31.47
2022-08-26T10:05:45.266Z,31.38
2022-08-26T10:07:02.820Z,31.28
2022-08-26T10:08:23.141Z,31.16
2022-08-26T10:09:26.461Z,31.07
2022-08-26T10:10:35.410Z,30.98
2022-08-26T10:11:40.334Z,30.91
2022-08-26T10:12:55.077Z,30.82
2022-08-26T10:14:03.265Z,30.74
2022-08-26T10:15:11.893Z,30.66
2022-08-26T10:16:35.587Z,30.57
2022-08-26T10:17:52.559Z,30.47
2022-08-26T10:19:12.183Z,30.37
2022-08-26T10:20:24.996Z,30.30
2022-08-26T10:21:36.903Z,30.21
2022-08-26T10:22:47.648Z,30.15
2022-08-26T10:23:53.904Z,30.06
2022-08-26T10:25:03.853Z,30.01
2022-08-26T10:26:16.456Z,29.93
2022-08-26T10:27:53.428Z,29.86
2022-08-26T10:29:19.119Z,29.77
2022-08-26T10:30:24.163Z,29.71
2022-08-26T10:31:40.560Z,29.68
2022-08-26T10:32:48.957Z,29.62
2022-08-26T10:33:52.512Z,29.58
2022-08-26T10:34:56.654Z,29.53
2022-08-26T10:36:03.469Z,29.48
2022-08-26T10:37:16.602Z,29.43
2022-08-26T10:38:27.373Z,29.39
2022-08-26T10:39:37.100Z,29.35
2022-08-26T10:41:02.752Z,29.32
2022-08-26T10:42:38.852Z,29.27
2022-08-26T10:43:53.596Z,29.24
2022-08-26T10:45:02.369Z,29.21
2022-08-26T10:46:10.665Z,29.18
2022-08-26T10:47:24.696Z,29.14
2022-08-26T10:48:39.130Z,29.14
2022-08-26T10:49:44.378Z,29.10
2022-08-26T10:50:47.824Z,29.09
2022-08-26T10:52:19.549Z,29.08
2022-08-26T10:53:45.103Z,29.07
2022-08-26T10:55:07.170Z,29.07
2022-08-26T10:56:36.655Z,29.08
2022-08-26T10:57:55.559Z,29.10
2022-08-26T10:59:12.191Z,29.10
2022-08-26T11:00:43.981Z,29.12
2022-08-26T11:02:25.135Z,29.15
2022-08-26T11:03:34.472Z,29.16
2022-08-26T11:05:06.256Z,29.19
2022-08-26T11:06:18.006Z,29.22
2022-08-26T11:07:45.067Z,29.25
2022-08-26T11:08:52.828Z,29.28
2022-08-26T11:09:55.035Z,29.30
2022-08-26T11:11:00.608Z,29.34
2022-08-26T11:12:10.012Z,29.34
2022-08-26T11:13:12.638Z,29.37
2022-08-26T11:14:28.923Z,29.39
2022-08-26T11:15:32.421Z,29.39
2022-08-26T11:16:44.395Z,29.39
2022-08-26T11:17:46.720Z,29.40
2022-08-26T11:18:51.310Z,29.40
2022-08-26T11:20:03.294Z,29.41
2022-08-26T11:21:47.674Z,29.40
2022-08-26T11:22:53.440Z,29.42
2022-08-26T11:23:55.655Z,29.40
2022-08-26T11:24:57.792Z,29.39
2022-08-26T11:26:08.935Z,29.36
2022-08-26T11:27:37.223Z,29.36
2022-08-26T11:28:44.223Z,29.34
2022-08-26T11:30:08.129Z,29.31
2022-08-26T11:31:40.917Z,29.30
2022-08-26T11:32:43.367Z,29.26
2022-08-26T11:33:48.945Z,29.26
2022-08-26T11:34:59.392Z,29.25
2022-08-26T11:36:11.494Z,29.23
2022-08-26T11:37:17.835Z,29.21
2022-08-26T11:38:29.088Z,29.21
2022-08-26T11:39:46.861Z,29.21
2022-08-26T11:41:06.387Z,29.20
2022-08-26T11:42:46.507Z,29.20
2022-08-26T11:43:50.557Z,29.19
2022-08-26T11:44:53.227Z,29.19
2022-08-26T11:46:10.769Z,29.20
2022-08-26T11:47:15.559Z,29.21
2022-08-26T11:48:20.942Z,29.19
2022-08-26T11:49:24.973Z,29.22
2022-08-26T11:50:28.679Z,29.21
2022-08-26T11:51:34.947Z,29.21
2022-08-26T11:52:40.481Z,29.22
2022-08-26T11:53:53.887Z,29.21
2022-08-26T11:55:06.593Z,29.23
2022-08-26T11:56:34.442Z,29.26
2022-08-26T11:57:46.033Z,29.28
2022-08-26T11:58:51.599Z,29.29
2022-08-26T11:59:55.551Z,29.31
2022-08-26T12:01:09.757Z,29.34
2022-08-26T12:02:18.114Z,29.36
2022-08-26T12:03:49.716Z,29.38
2022-08-26T12:04:54.593Z,29.41
2022-08-26T12:05:57.413Z,29.42
2022-08-26T12:07:02.432Z,29.45
2022-08-26T12:08:11.092Z,29.48
2022-08-26T12:09:21.747Z,29.50
2022-08-26T12:10:33.876Z,29.51
2022-08-26T12:11:37.690Z,29.54
2022-08-26T12:12:42.570Z,29.57
2022-08-26T12:13:54.402Z,29.58
2022-08-26T12:15:20.485Z,29.62
2022-08-26T12:16:29.572Z,29.65
2022-08-26T12:17:34.542Z,29.68
2022-08-26T12:18:40.368Z,29.70
2022-08-26T12:19:50.172Z,29.73
2022-08-26T12:20:56.472Z,29.75
2022-08-26T12:22:04.065Z,29.78
2022-08-26T12:23:06.307Z,29.82
2022-08-26T12:24:11.456Z,29.83
2022-08-26T12:25:22.919Z,29.84
2022-08-26T12:26:40.089Z,29.85
2022-08-26T12:27:44.216Z,29.89
2022-08-26T12:28:58.496Z,29.90
2022-08-26T12:30:02.818Z,29.91
2022-08-26T12:31:06.528Z,29.91
2022-08-26T12:32:13.562Z,29.93
2022-08-26T12:33:22.682Z,29.95
2022-08-26T12:34:26.284Z,29.94
2022-08-26T12:35:29.458Z,29.95
2022-08-26T12:36:36.627Z,29.98
2022-08-26T12:37:43.190Z,29.99
2022-08-26T12:38:46.897Z,30.00
2022-08-26T12:39:49.366Z,30.00
2022-08-26T12:40:51.797Z,30.01
2022-08-26T12:42:03.200Z,30.02
2022-08-26T12:43:07.269Z,30.04
2022-08-26T12:44:09.535Z,30.04
2022-08-26T12:45:11.724Z,30.05
2022-08-26T12:46:18.106Z,30.06
2022-08-26T12:47:43.136Z,30.08
2022-08-26T12:48:49.141Z,30.08
2022-08-26T12:50:10.970Z,30.11
2022-08-26T12:51:22.300Z,30.13
2022-08-26T12:52:31.364Z,30.12
2022-08-26T12:53:40.768Z,30.10
2022-08-26T12:55:01.467Z,30.11
2022-08-26T12:56:19.572Z,30.11
2022-08-26T12:57:28.100Z,30.11
2022-08-26T12:58:37.277Z,30.09
2022-08-26T12:59:40.525Z,30.08
2022-08-26T13:00:45.309Z,30.07
2022-08-26T13:01:48.668Z,30.07
2022-08-26T13:02:52.033Z,30.07
2022-08-26T13:03:54.249Z,30.07
2022-08-26T13:05:00.910Z,30.06
2022-08-26T13:06:31.343Z,30.07
2022-08-26T13:07:33.653Z,30.07
2022-08-26T13:08:39.294Z,30.08
2022-08-26T13:09:41.572Z,30.07
2022-08-26T13:10:47.882Z,30.07
2022-08-26T13:11:50.057Z,30.06
2022-08-26T13:12:53.112Z,30.06
2022-08-26T13:14:21.205Z,30.06
2022-08-26T13:15:26.778Z,30.07
2022-08-26T13:16:29.702Z,30.08
2022-08-26T13:17:32.237Z,30.09
2022-08-26T13:18:34.426Z,30.09
2022-08-26T13:19:36.653Z,30.11
2022-08-26T13:20:45.961Z,30.12
2022-08-26T13:21:50.795Z,30.13
2022-08-26T13:22:58.478Z,30.13
2022-08-26T13:24:14.130Z,30.15
2022-08-26T13:25:19.952Z,30.14
2022-08-26T13:26:23.224Z,30.16
2022-08-26T13:27:26.571Z,30.17
2022-08-26T13:28:28.738Z,30.18
2022-08-26T13:29:30.964Z,30.17
2022-08-26T13:30:33.177Z,30.18
2022-08-26T13:31:36.742Z,30.18
2022-08-26T13:32:39.441Z,30.19
2022-08-26T13:33:44.560Z,30.20
2022-08-26T13:34:51.272Z,30.20
2022-08-26T13:35:54.877Z,30.20
2022-08-26T13:36:58.036Z,30.19
2022-08-26T13:38:00.386Z,30.19
2022-08-26T13:39:02.694Z,30.20
2022-08-26T13:40:07.024Z,30.19
2022-08-26T13:41:09.530Z,30.20
2022-08-26T13:42:14.573Z,30.19
2022-08-26T13:43:17.019Z,30.18
2022-08-26T13:44:19.327Z,30.18
2022-08-26T13:45:21.523Z,30.17
2022-08-26T13:46:28.278Z,30.16
2022-08-26T13:47:33.185Z,30.13
2022-08-26T13:48:35.490Z,30.10
2022-08-26T13:49:39.106Z,30.07
2022-08-26T13:50:41.347Z,30.04
2022-08-26T13:51:46.386Z,30.03
2022-08-26T13:52:48.623Z,29.99
2022-08-26T13:53:51.668Z,29.97
2022-08-26T13:54:54.037Z,29.91
2022-08-26T13:56:02.045Z,29.89
2022-08-26T13:57:04.835Z,29.82
2022-08-26T13:58:07.234Z,29.77
2022-08-26T13:59:09.492Z,29.73
2022-08-26T14:00:12.368Z,29.69
2022-08-26T14:01:15.820Z,29.64
2022-08-26T14:02:18.073Z,29.58
2022-08-26T14:03:20.547Z,29.55
2022-08-26T14:04:27.353Z,29.50
2022-08-26T14:05:30.181Z,29.46
2022-08-26T14:06:32.760Z,29.41
2022-08-26T14:07:35.057Z,29.38
2022-08-26T14:08:38.563Z,29.34
2022-08-26T14:09:40.753Z,29.28
2022-08-26T14:10:43.122Z,29.25
2022-08-26T14:11:54.169Z,29.22
2022-08-26T14:12:57.538Z,29.19
2022-08-26T14:13:59.770Z,29.15
2022-08-26T14:15:01.977Z,29.10
2022-08-26T14:16:07.726Z,29.07
2022-08-26T14:17:19.222Z,29.03
2022-08-26T14:18:28.780Z,28.99
2022-08-26T14:19:33.508Z,28.95
2022-08-26T14:20:37.293Z,28.92
2022-08-26T14:21:39.699Z,28.88
2022-08-26T14:23:03.468Z,28.84
2022-08-26T14:24:10.195Z,28.82
2022-08-26T14:25:13.833Z,28.77